createdAt,value
2022-10-17T00:00:28.610Z,6.27
2022-10-17T00:02:56.136Z,6.56
2022-10-17T00:05:23.642Z,6.91
2022-10-17T00:07:50.108Z,6.78
2022-10-17T00:10:20.164Z,6.97
2022-10-17T00:12:48.247Z,7.15
2022-10-17T00:15:18.287Z,7.31
2022-10-17T00:17:45.039Z,7.35
2022-10-17T00:20:13.521Z,7.26
2022-10-17T00:22:40.153Z,7.14
2022-10-17T00:25:07.062Z,7.13
2022-10-17T00:27:38.114Z,7.22
2022-10-17T00:30:06.447Z,7.37
2022-10-17T00:32:32.927Z,7.33
2022-10-17T00:34:59.443Z,7.18
2022-10-17T00:37:25.899Z,7.23
2022-10-17T00:39:52.434Z,7.05
2022-10-17T00:42:19.052Z,7.06
2022-10-17T00:44:47.493Z,7.06
2022-10-17T00:47:17.740Z,7.08
2022-10-17T00:49:44.403Z,6.98
2022-10-17T00:52:25.312Z,6.89
2022-10-17T00:54:55.063Z,6.89
2022-10-17T00:57:22.028Z,6.91
2022-10-17T00:59:51.735Z,6.72
2022-10-17T01:02:21.022Z,6.69
2022-10-17T01:04:49.303Z,6.71
2022-10-17T01:07:16.031Z,6.62
2022-10-17T01:09:43.273Z,6.79
2022-10-17T01:12:15.859Z,6.99
2022-10-17T01:15:10.167Z,7.08
2022-10-17T01:17:45.553Z,6.95
2022-10-17T01:20:24.051Z,7.09
2022-10-17T01:23:13.841Z,6.91
2022-10-17T01:25:58.589Z,7.03
2022-10-17T01:28:54.256Z,7.15
2022-10-17T01:31:23.043Z,7.11
2022-10-17T01:34:07.748Z,7.03
2022-10-17T01:36:38.299Z,6.89
2022-10-17T01:39:15.455Z,6.51
2022-10-17T01:42:19.511Z,6.70
2022-10-17T01:44:59.294Z,6.64
2022-10-17T01:47:28.993Z,6.86
2022-10-17T01:49:59.381Z,7.02
2022-10-17T01:52:30.188Z,7.14
2022-10-17T01:55:27.592Z,7.13
2022-10-17T01:57:57.677Z,7.27
2022-10-17T02:00:26.198Z,7.29
2022-10-17T02:02:57.037Z,7.35
2022-10-17T02:05:26.822Z,7.49
2022-10-17T02:07:53.282Z,7.55
2022-10-17T02:10:36.693Z,7.53
2022-10-17T02:13:27.632Z,7.32
2022-10-17T02:16:09.301Z,6.99
2022-10-17T02:18:53.040Z,7.02
2022-10-17T02:21:39.636Z,7.07
2022-10-17T02:24:25.689Z,7.00
2022-10-17T02:27:08.170Z,7.07
2022-10-17T02:29:40.443Z,7.12
2022-10-17T02:32:09.062Z,7.22
2022-10-17T02:34:43.245Z,7.28
2022-10-17T02:37:11.035Z,7.41
2022-10-17T02:39:38.234Z,7.32
2022-10-17T02:42:06.544Z,7.35
2022-10-17T02:44:33.835Z,7.33
2022-10-17T02:47:26.976Z,7.33
2022-10-17T02:49:56.474Z,7.51
2022-10-17T02:52:35.258Z,7.61
2022-10-17T02:55:16.473Z,7.70
2022-10-17T02:57:45.637Z,7.54
2022-10-17T03:00:22.770Z,7.47
2022-10-17T03:02:51.205Z,7.48
2022-10-17T03:05:26.842Z,7.52
2022-10-17T03:07:54.128Z,7.64
2022-10-17T03:10:20.866Z,7.51
2022-10-17T03:12:53.542Z,7.43
2022-10-17T03:15:20.064Z,7.35
2022-10-17T03:17:46.660Z,7.35
2022-10-17T03:20:13.160Z,7.47
2022-10-17T03:22:39.681Z,7.65
2022-10-17T03:25:06.510Z,7.79
2022-10-17T03:27:33.243Z,7.84
2022-10-17T03:29:59.783Z,7.94
2022-10-17T03:32:26.331Z,7.95
2022-10-17T03:34:52.810Z,8.09
2022-10-17T03:37:19.255Z,8.20
2022-10-17T03:39:45.724Z,8.23
2022-10-17T03:42:12.184Z,8.24
2022-10-17T03:44:38.635Z,8.27
2022-10-17T03:47:06.491Z,8.28
2022-10-17T03:49:33.714Z,8.35
2022-10-17T03:52:00.178Z,8.41
2022-10-17T03:54:26.810Z,8.54
2022-10-17T03:56:53.361Z,8.60
2022-10-17T03:59:19.827Z,8.66
2022-10-17T04:01:46.476Z,8.61
2022-10-17T04:04:13.102Z,8.70
2022-10-17T04:06:39.552Z,8.74
2022-10-17T04:09:06.912Z,8.83
2022-10-17T04:11:33.994Z,8.85
2022-10-17T04:14:00.457Z,8.81
2022-10-17T04:16:27.020Z,8.86
2022-10-17T04:18:55.368Z,8.91
2022-10-17T04:21:23.002Z,9.00
2022-10-17T04:23:53.175Z,9.05
2022-10-17T04:26:19.911Z,9.07
2022-10-17T04:28:46.413Z,9.09
2022-10-17T04:31:14.367Z,9.12
2022-10-17T04:33:41.386Z,9.14
2022-10-17T04:36:11.972Z,9.23
2022-10-17T04:38:38.492Z,9.23
2022-10-17T04:41:07.617Z,9.27
2022-10-17T04:43:36.514Z,9.24
2022-10-17T04:46:05.484Z,9.31
2022-10-17T04:48:31.975Z,9.33
2022-10-17T04:51:04.536Z,9.25
2022-10-17T04:53:33.560Z,9.26
2022-10-17T04:56:00.031Z,9.25
2022-10-17T04:58:28.160Z,9.37
2022-10-17T05:00:54.726Z,9.48
2022-10-17T05:03:21.253Z,9.52
2022-10-17T05:05:48.187Z,9.55
2022-10-17T05:08:14.640Z,9.72
2022-10-17T05:10:43.260Z,9.75
2022-10-17T05:13:10.372Z,9.80
2022-10-17T05:15:37.856Z,9.88
2022-10-17T05:18:05.619Z,9.93
2022-10-17T05:20:32.719Z,9.91
2022-10-17T05:22:59.798Z,9.91
2022-10-17T05:25:26.402Z,9.99
2022-10-17T05:27:53.429Z,10.07
2022-10-17T05:30:19.897Z,10.03
2022-10-17T05:32:46.356Z,10.08
2022-10-17T05:35:12.815Z,10.10
2022-10-17T05:37:39.295Z,10.09
2022-10-17T05:40:06.208Z,10.13
2022-10-17T05:42:33.143Z,10.21
2022-10-17T05:44:59.850Z,10.29
2022-10-17T05:47:26.407Z,10.38
2022-10-17T05:49:53.121Z,10.35
2022-10-17T05:52:19.596Z,10.32
2022-10-17T05:54:46.082Z,10.49
2022-10-17T05:57:12.558Z,10.48
2022-10-17T05:59:39.066Z,10.66
2022-10-17T06:02:05.604Z,10.64
2022-10-17T06:04:32.432Z,10.71
2022-10-17T06:06:58.913Z,10.77
2022-10-17T06:09:25.562Z,10.80
2022-10-17T06:11:52.078Z,10.79
2022-10-17T06:14:18.537Z,10.85
2022-10-17T06:16:45.035Z,11.17
2022-10-17T06:19:11.601Z,12.04
2022-10-17T06:21:38.866Z,12.47
2022-10-17T06:24:05.323Z,12.45
2022-10-17T06:26:31.785Z,11.44
2022-10-17T06:28:58.272Z,11.43
2022-10-17T06:31:24.802Z,11.69
2022-10-17T06:33:51.255Z,12.53
2022-10-17T06:36:17.735Z,13.05
2022-10-17T06:38:44.205Z,12.58
2022-10-17T06:41:15.108Z,12.55
2022-10-17T06:43:48.829Z,13.10
2022-10-17T06:46:16.952Z,12.79
2022-10-17T06:48:43.441Z,12.72
2022-10-17T06:51:11.363Z,12.82
2022-10-17T06:53:39.377Z,13.17
2022-10-17T06:56:07.106Z,14.13
2022-10-17T06:58:35.622Z,13.72
2022-10-17T07:01:04.176Z,13.31
2022-10-17T07:03:30.690Z,12.78
2022-10-17T07:05:57.405Z,12.64
2022-10-17T07:08:24.439Z,12.38
2022-10-17T07:10:51.261Z,12.32
2022-10-17T07:13:18.707Z,12.30
2022-10-17T07:15:45.698Z,12.26
2022-10-17T07:18:12.322Z,12.23
2022-10-17T07:20:38.864Z,12.22
2022-10-17T07:23:05.318Z,12.24
2022-10-17T07:25:33.270Z,12.31
2022-10-17T07:28:02.175Z,12.33
2022-10-17T07:30:28.746Z,12.40
2022-10-17T07:32:55.257Z,12.49
2022-10-17T07:35:21.948Z,12.51
2022-10-17T07:37:48.564Z,12.54
2022-10-17T07:40:15.067Z,12.51
2022-10-17T07:42:41.565Z,12.56
2022-10-17T07:45:08.525Z,12.57
2022-10-17T07:47:35.799Z,12.52
2022-10-17T07:50:03.805Z,12.51
2022-10-17T07:52:30.616Z,12.55
2022-10-17T07:54:57.368Z,12.60
2022-10-17T07:57:23.991Z,12.59
2022-10-17T07:59:51.293Z,12.59
2022-10-17T08:02:23.568Z,12.57
2022-10-17T08:04:50.528Z,12.66
2022-10-17T08:07:23.262Z,12.65
2022-10-17T08:09:50.795Z,12.67
2022-10-17T08:12:17.713Z,12.69
2022-10-17T08:14:44.333Z,12.77
2022-10-17T08:17:10.797Z,12.79
2022-10-17T08:19:41.244Z,12.83
2022-10-17T08:22:08.331Z,12.83
2022-10-17T08:24:35.274Z,12.87
2022-10-17T08:27:01.897Z,12.93
2022-10-17T08:29:28.363Z,12.98
2022-10-17T08:32:00.842Z,13.07
2022-10-17T08:34:27.526Z,13.20
2022-10-17T08:36:54.105Z,13.28
2022-10-17T08:39:20.562Z,13.30
2022-10-17T08:41:56.220Z,13.32
2022-10-17T08:45:14.660Z,13.37
2022-10-17T08:47:44.661Z,13.35
2022-10-17T08:50:35.569Z,13.36
2022-10-17T08:53:34.710Z,13.37
2022-10-17T08:56:11.933Z,13.41
2022-10-17T08:58:41.692Z,13.45
2022-10-17T09:01:37.517Z,13.43
2022-10-17T09:04:38.193Z,13.47
2022-10-17T09:07:32.084Z,13.50
2022-10-17T09:10:29.981Z,13.51
2022-10-17T09:13:08.403Z,13.57
2022-10-17T09:16:01.338Z,13.68
2022-10-17T09:18:33.970Z,13.78
2022-10-17T09:21:39.334Z,13.91
2022-10-17T09:24:20.941Z,14.24
2022-10-17T09:26:47.400Z,14.47
2022-10-17T09:29:23.315Z,14.69
2022-10-17T09:32:02.273Z,14.68
2022-10-17T09:34:31.784Z,15.00
2022-10-17T09:37:00.462Z,15.00
2022-10-17T09:39:29.169Z,15.10
2022-10-17T09:41:57.434Z,15.28
2022-10-17T09:44:32.950Z,15.22
2022-10-17T09:47:20.552Z,15.29
2022-10-17T09:49:48.341Z,15.34
2022-10-17T09:52:18.826Z,15.50
2022-10-17T09:54:50.879Z,15.70
2022-10-17T09:57:18.887Z,15.67
2022-10-17T09:59:49.343Z,15.87
2022-10-17T10:02:15.755Z,15.78
2022-10-17T10:05:06.067Z,15.80
2022-10-17T10:07:36.562Z,15.97
2022-10-17T10:10:05.950Z,16.31
2022-10-17T10:12:38.025Z,16.36
2022-10-17T10:15:33.322Z,16.35
2022-10-17T10:18:00.014Z,16.30
2022-10-17T10:20:32.658Z,16.15
2022-10-17T10:23:14.950Z,16.10
2022-10-17T10:25:56.302Z,16.27
2022-10-17T10:28:34.146Z,16.26
2022-10-17T10:31:04.703Z,16.33
2022-10-17T10:33:32.437Z,16.41
2022-10-17T10:36:01.839Z,16.50
2022-10-17T10:38:29.423Z,16.59
2022-10-17T10:41:01.884Z,16.67
2022-10-17T10:43:33.459Z,16.70
2022-10-17T10:46:00.619Z,16.82
2022-10-17T10:48:37.442Z,16.98
2022-10-17T10:51:14.634Z,16.98
2022-10-17T10:53:49.865Z,16.98
2022-10-17T10:56:26.063Z,16.95
2022-10-17T10:59:08.993Z,16.86
2022-10-17T11:01:54.736Z,16.81
2022-10-17T11:04:45.096Z,16.77
2022-10-17T11:07:25.820Z,16.77
2022-10-17T11:09:59.915Z,16.82
2022-10-17T11:12:34.383Z,16.86
2022-10-17T11:15:07.890Z,16.87
2022-10-17T11:17:44.261Z,16.80
2022-10-17T11:20:44.086Z,16.68
2022-10-17T11:23:21.674Z,16.58
2022-10-17T11:25:50.968Z,16.50
2022-10-17T11:28:20.246Z,16.49
2022-10-17T11:31:04.639Z,16.44
2022-10-17T11:33:56.952Z,16.38
2022-10-17T11:36:29.643Z,16.40
2022-10-17T11:39:05.696Z,16.39
2022-10-17T11:41:45.446Z,16.40
2022-10-17T11:44:36.417Z,16.41
2022-10-17T11:47:30.052Z,16.42
2022-10-17T11:53:13.248Z,16.42
2022-10-17T11:55:41.307Z,16.44
2022-10-17T11:58:43.288Z,16.40
2022-10-17T12:01:33.393Z,16.34
2022-10-17T12:04:05.884Z,16.26
2022-10-17T12:06:54.185Z,16.19
2022-10-17T12:09:41.871Z,16.12
2022-10-17T12:12:09.023Z,16.12
2022-10-17T12:14:47.758Z,16.08
2022-10-17T12:17:39.118Z,16.04
2022-10-17T12:20:21.406Z,16.00
2022-10-17T12:22:48.903Z,15.95
2022-10-17T12:25:30.677Z,15.90
2022-10-17T12:28:13.305Z,15.88
2022-10-17T12:30:58.775Z,15.86
2022-10-17T12:33:30.887Z,15.87
2022-10-17T12:36:18.953Z,15.78
2022-10-17T12:38:50.421Z,15.74
2022-10-17T12:41:17.700Z,15.72
2022-10-17T12:43:52.344Z,15.69
2022-10-17T12:46:42.040Z,15.64
2022-10-17T12:49:23.988Z,15.61
2022-10-17T12:52:08.695Z,15.58
2022-10-17T12:54:59.896Z,15.56
2022-10-17T12:57:33.424Z,15.57
2022-10-17T13:00:15.932Z,15.51
2022-10-17T13:02:42.552Z,15.50
2022-10-17T13:05:15.887Z,15.49
2022-10-17T13:07:44.388Z,15.44
2022-10-17T13:10:23.112Z,15.41
2022-10-17T13:12:50.570Z,15.36
2022-10-17T13:15:19.314Z,15.34
2022-10-17T13:17:45.919Z,15.29
2022-10-17T13:20:28.869Z,15.27
2022-10-17T13:22:58.312Z,15.24
2022-10-17T13:25:26.196Z,15.24
2022-10-17T13:28:03.947Z,15.23
2022-10-17T13:30:33.219Z,15.23
2022-10-17T13:33:00.815Z,15.25
2022-10-17T13:35:58.691Z,15.27
2022-10-17T13:38:27.513Z,15.28
2022-10-17T13:41:01.758Z,15.34
2022-10-17T13:43:38.678Z,15.34
2022-10-17T13:46:25.351Z,15.31
2022-10-17T13:48:52.607Z,15.34
2022-10-17T13:51:19.448Z,15.32
2022-10-17T13:53:45.933Z,15.33
2022-10-17T13:56:28.864Z,15.27
2022-10-17T13:59:17.332Z,15.23
2022-10-17T14:01:43.868Z,15.22
2022-10-17T14:04:19.583Z,15.17
2022-10-17T14:06:49.635Z,15.12
2022-10-17T14:09:18.535Z,15.06
2022-10-17T14:11:45.307Z,15.04
2022-10-17T14:14:20.207Z,15.02
2022-10-17T14:16:51.712Z,14.98
2022-10-17T14:19:31.879Z,14.97
2022-10-17T14:22:27.293Z,14.91
2022-10-17T14:24:57.124Z,14.89
2022-10-17T14:27:42.410Z,14.88
2022-10-17T14:30:51.625Z,14.87
2022-10-17T14:33:24.516Z,14.88
2022-10-17T14:35:56.478Z,14.89
2022-10-17T14:38:23.612Z,14.89
2022-10-17T14:41:04.834Z,14.85
2022-10-17T14:43:43.196Z,14.89
2022-10-17T14:46:14.914Z,14.91
2022-10-17T14:48:41.983Z,14.88
2022-10-17T14:51:12.578Z,14.88
2022-10-17T14:53:39.591Z,14.91
2022-10-17T14:56:26.246Z,14.84
2022-10-17T14:58:52.863Z,14.81
2022-10-17T15:01:19.608Z,14.75
2022-10-17T15:03:47.627Z,14.75
2022-10-17T15:06:23.586Z,14.72
2022-10-17T15:08:50.086Z,14.70
2022-10-17T15:11:16.532Z,14.66
2022-10-17T15:13:45.685Z,14.66
2022-10-17T15:16:19.022Z,14.65
2022-10-17T15:18:45.535Z,14.63
2022-10-17T15:21:33.644Z,14.61
2022-10-17T15:24:01.711Z,14.59
2022-10-17T15:26:31.753Z,14.59
2022-10-17T15:28:58.300Z,14.59
2022-10-17T15:31:25.912Z,14.62
2022-10-17T15:33:52.564Z,14.63
2022-10-17T15:36:37.751Z,14.63
2022-10-17T15:39:04.306Z,14.66
2022-10-17T15:41:32.210Z,14.65
2022-10-17T15:43:59.368Z,14.63
2022-10-17T15:46:29.309Z,14.63
2022-10-17T15:48:56.917Z,14.61
2022-10-17T15:51:23.903Z,14.61
2022-10-17T15:53:50.396Z,14.63
2022-10-17T15:56:21.265Z,14.65
2022-10-17T15:58:47.831Z,14.63
2022-10-17T16:01:21.610Z,14.64
2022-10-17T16:03:50.187Z,14.62
2022-10-17T16:06:18.571Z,14.62
2022-10-17T16:08:48.697Z,14.62
2022-10-17T16:11:26.332Z,14.62
2022-10-17T16:13:54.084Z,14.64
2022-10-17T16:16:22.588Z,14.63
2022-10-17T16:18:49.232Z,14.66
2022-10-17T16:21:16.608Z,14.59
2022-10-17T16:23:43.277Z,14.62
2022-10-17T16:26:09.917Z,14.62
2022-10-17T16:28:36.473Z,14.63
2022-10-17T16:31:02.958Z,14.61
2022-10-17T16:33:31.259Z,14.58
2022-10-17T16:35:57.946Z,14.58
2022-10-17T16:38:24.417Z,14.55
2022-10-17T16:40:51.156Z,14.52
2022-10-17T16:43:17.807Z,14.54
2022-10-17T16:45:44.355Z,14.57
2022-10-17T16:48:11.107Z,14.57
2022-10-17T16:50:39.580Z,14.60
2022-10-17T16:53:06.043Z,14.58
2022-10-17T16:55:32.502Z,14.55
2022-10-17T16:57:59.916Z,14.58
2022-10-17T17:00:26.738Z,14.54
2022-10-17T17:02:53.267Z,14.55
2022-10-17T17:05:19.814Z,14.54
2022-10-17T17:07:47.931Z,14.53
2022-10-17T17:10:14.420Z,14.56
2022-10-17T17:12:40.884Z,14.55
2022-10-17T17:15:07.759Z,14.54
2022-10-17T17:17:49.590Z,14.50
2022-10-17T17:20:17.845Z,14.54
2022-10-17T17:22:44.297Z,14.53
2022-10-17T17:25:10.765Z,14.52
2022-10-17T17:27:44.861Z,14.47
2022-10-17T17:30:13.393Z,14.48
2022-10-17T17:32:40.315Z,14.38
2022-10-17T17:35:08.281Z,14.35
2022-10-17T17:37:35.011Z,14.31
2022-10-17T17:40:01.551Z,14.31
2022-10-17T17:42:28.186Z,14.35
2022-10-17T17:44:54.745Z,14.31
2022-10-17T17:47:21.279Z,14.29
2022-10-17T17:49:48.107Z,14.22
2022-10-17T17:52:14.650Z,14.25
2022-10-17T17:54:41.247Z,14.28
2022-10-17T17:57:07.730Z,14.24
2022-10-17T17:59:34.309Z,14.26
2022-10-17T18:02:03.604Z,14.20
2022-10-17T18:04:30.223Z,14.20
2022-10-17T18:06:56.756Z,14.30
2022-10-17T18:09:24.244Z,14.32
2022-10-17T18:11:53.164Z,14.28
2022-10-17T18:14:24.177Z,14.29
2022-10-17T18:16:53.920Z,14.33
2022-10-17T18:19:22.157Z,14.27
2022-10-17T18:21:48.758Z,14.23
2022-10-17T18:24:15.223Z,14.25
2022-10-17T18:26:41.682Z,14.30
2022-10-17T18:29:09.003Z,14.25
2022-10-17T18:31:36.025Z,14.24
2022-10-17T18:34:04.123Z,14.24
2022-10-17T18:36:31.454Z,14.16
2022-10-17T18:38:59.251Z,14.15
2022-10-17T18:41:27.425Z,14.17
2022-10-17T18:43:55.831Z,14.19
2022-10-17T18:46:28.421Z,14.20
2022-10-17T18:48:55.725Z,14.21
2022-10-17T18:51:24.756Z,14.26
2022-10-17T18:53:54.186Z,14.35
2022-10-17T18:56:22.236Z,14.28
2022-10-17T18:58:49.848Z,14.39
2022-10-17T19:01:19.120Z,14.41
2022-10-17T19:03:48.579Z,14.42
2022-10-17T19:06:17.246Z,14.33
2022-10-17T19:08:44.000Z,14.26
2022-10-17T19:11:13.178Z,14.23
2022-10-17T19:13:40.113Z,14.20
2022-10-17T19:16:20.708Z,14.17
2022-10-17T19:18:52.533Z,14.21
2022-10-17T19:21:21.845Z,14.25
2022-10-17T19:23:52.475Z,14.25
2022-10-17T19:26:19.700Z,14.23
2022-10-17T19:28:47.536Z,14.29
2022-10-17T19:31:16.990Z,14.24
2022-10-17T19:33:44.692Z,14.22
2022-10-17T19:36:11.693Z,14.30
2022-10-17T19:38:38.191Z,14.31
2022-10-17T19:41:08.501Z,14.30
2022-10-17T19:43:39.212Z,14.31
2022-10-17T19:46:08.718Z,14.36
2022-10-17T19:48:39.961Z,14.42
2022-10-17T19:51:12.102Z,14.44
2022-10-17T19:53:39.692Z,14.41
2022-10-17T19:56:07.054Z,14.46
2022-10-17T19:58:37.302Z,14.47
2022-10-17T20:01:05.578Z,14.49
2022-10-17T20:03:32.068Z,14.46
2022-10-17T20:05:58.524Z,14.53
2022-10-17T20:10:52.385Z,14.54
2022-10-17T20:13:18.849Z,14.52
2022-10-17T20:15:55.792Z,14.52
2022-10-17T20:18:22.257Z,14.49
2022-10-17T20:20:48.845Z,14.47
2022-10-17T20:23:15.370Z,14.45
2022-10-17T20:25:41.872Z,14.40
2022-10-17T20:28:08.555Z,14.37
2022-10-17T20:30:35.298Z,14.34
2022-10-17T20:33:01.787Z,14.35
2022-10-17T20:35:28.261Z,14.29
2022-10-17T20:37:54.775Z,14.30
2022-10-17T20:40:34.552Z,14.28
2022-10-17T20:43:02.284Z,14.25
2022-10-17T20:45:43.693Z,14.31
2022-10-17T20:48:15.712Z,14.25
2022-10-17T20:50:43.455Z,14.20
2022-10-17T20:53:35.425Z,14.18
2022-10-17T20:56:05.891Z,14.12
2022-10-17T20:58:33.006Z,14.15
2022-10-17T21:01:15.240Z,14.12
2022-10-17T21:03:45.476Z,14.06
2022-10-17T21:06:14.097Z,14.05
2022-10-17T21:08:40.557Z,14.06
2022-10-17T21:11:18.058Z,14.04
2022-10-17T21:13:45.098Z,14.04
2022-10-17T21:16:17.615Z,14.00
2022-10-17T21:18:44.335Z,13.99
2022-10-17T21:21:19.939Z,14.01
2022-10-17T21:23:48.272Z,13.99
2022-10-17T21:26:15.968Z,13.96
2022-10-17T21:28:43.843Z,13.92
2022-10-17T21:31:21.783Z,13.90
2022-10-17T21:33:57.352Z,13.86
2022-10-17T21:36:25.096Z,13.81
2022-10-17T21:38:54.359Z,13.74
2022-10-17T21:41:24.062Z,13.73
2022-10-17T21:44:00.274Z,13.65
2022-10-17T21:46:27.020Z,13.62
2022-10-17T21:48:54.390Z,13.58
2022-10-17T21:51:23.187Z,13.56
2022-10-17T21:53:52.415Z,13.56
2022-10-17T21:56:21.553Z,13.45
2022-10-17T21:58:49.115Z,13.44
2022-10-17T22:01:17.681Z,13.39
2022-10-17T22:03:48.972Z,13.37
2022-10-17T22:06:39.241Z,13.32
2022-10-17T22:09:06.627Z,13.28
2022-10-17T22:11:35.169Z,13.31
2022-10-17T22:14:05.109Z,13.28
2022-10-17T22:16:32.028Z,13.25
2022-10-17T22:19:06.165Z,13.14
2022-10-17T22:21:34.792Z,13.16
2022-10-17T22:24:03.703Z,13.17
2022-10-17T22:26:36.391Z,13.15
2022-10-17T22:29:04.639Z,13.17
2022-10-17T22:31:31.316Z,13.14
2022-10-17T22:33:58.276Z,13.09
2022-10-17T22:36:26.251Z,13.12
2022-10-17T22:38:53.741Z,12.94
2022-10-17T22:41:20.430Z,13.03
2022-10-17T22:43:47.226Z,13.04
2022-10-17T22:46:14.435Z,12.94
2022-10-17T22:48:41.145Z,12.98
2022-10-17T22:51:08.415Z,12.94
2022-10-17T22:53:35.871Z,12.96
2022-10-17T22:56:06.122Z,12.93
2022-10-17T22:58:34.060Z,12.88
2022-10-17T23:01:00.630Z,12.84
2022-10-17T23:03:28.375Z,12.88
2022-10-17T23:05:55.102Z,12.82
2022-10-17T23:08:21.587Z,12.73
2022-10-17T23:10:48.308Z,12.78
2022-10-17T23:13:15.145Z,12.74
2022-10-17T23:15:42.191Z,12.68
2022-10-17T23:18:10.561Z,12.66
2022-10-17T23:20:39.431Z,12.61
2022-10-17T23:23:06.486Z,12.67
2022-10-17T23:25:34.151Z,12.61
2022-10-17T23:28:00.944Z,12.62
2022-10-17T23:30:27.511Z,12.61
2022-10-17T23:32:54.474Z,12.53
2022-10-17T23:35:20.973Z,12.49
2022-10-17T23:37:47.619Z,12.46
2022-10-17T23:40:14.211Z,12.38
2022-10-17T23:42:41.835Z,12.41
2022-10-17T23:45:08.742Z,12.43
2022-10-17T23:47:35.275Z,12.37
2022-10-17T23:50:01.814Z,12.34
2022-10-17T23:52:28.647Z,12.33
2022-10-17T23:54:55.962Z,12.41
2022-10-17T23:57:22.649Z,12.33
2022-10-17T23:59:49.187Z,12.26
